createdAt,value
2022-10-01T00:00:18.318Z,12.07
2022-10-01T00:02:50.561Z,12.93
2022-10-01T00:05:25.572Z,12.70
2022-10-01T00:07:53.962Z,12.05
2022-10-01T00:10:24.015Z,11.98
2022-10-01T00:12:53.030Z,11.53
2022-10-01T00:15:21.766Z,11.75
2022-10-01T00:17:51.161Z,11.93
2022-10-01T00:20:19.632Z,11.35
2022-10-01T00:22:47.825Z,10.55
2022-10-01T00:25:16.937Z,10.67
2022-10-01T00:27:47.121Z,10.32
2022-10-01T00:30:17.724Z,10.77
2022-10-01T00:32:46.306Z,10.30
2022-10-01T00:35:16.073Z,10.65
2022-10-01T00:37:44.577Z,9.80
2022-10-01T00:40:13.036Z,10.02
2022-10-01T00:42:41.473Z,10.50
2022-10-01T00:45:12.705Z,10.40
2022-10-01T00:47:50.463Z,9.88
2022-10-01T00:50:26.438Z,9.93
2022-10-01T00:53:02.082Z,9.10
2022-10-01T00:55:36.258Z,9.38
2022-10-01T00:58:05.178Z,8.95
2022-10-01T01:00:33.940Z,10.93
2022-10-01T01:03:02.356Z,9.80
2022-10-01T01:05:32.291Z,9.23
2022-10-01T01:08:01.573Z,10.00
2022-10-01T01:10:34.254Z,9.55
2022-10-01T01:13:13.722Z,10.10
2022-10-01T01:15:48.143Z,10.40
2022-10-01T01:18:21.277Z,10.80
2022-10-01T01:24:51.039Z,9.90
2022-10-01T01:27:35.396Z,10.05
2022-10-01T01:30:08.456Z,10.17
2022-10-01T01:32:47.282Z,10.60
2022-10-01T01:35:24.376Z,10.02
2022-10-01T01:37:57.310Z,9.85
2022-10-01T01:40:26.608Z,10.07
2022-10-01T01:42:56.760Z,11.20
2022-10-01T01:45:30.780Z,10.23
2022-10-01T01:48:02.183Z,11.05
2022-10-01T01:50:36.394Z,10.55
2022-10-01T01:53:04.934Z,11.07
2022-10-01T01:55:33.732Z,11.23
2022-10-01T01:58:02.305Z,10.82
2022-10-01T02:00:31.865Z,11.13
2022-10-01T02:03:00.367Z,10.90
2022-10-01T02:05:35.200Z,10.23
2022-10-01T02:08:28.015Z,10.20
2022-10-01T02:11:20.023Z,10.00
2022-10-01T02:14:00.106Z,10.07
2022-10-01T02:16:34.650Z,11.05
2022-10-01T02:19:07.082Z,10.02
2022-10-01T02:21:54.577Z,10.90
2022-10-01T02:24:28.767Z,10.05
2022-10-01T02:26:57.514Z,11.13
2022-10-01T02:29:25.975Z,10.77
2022-10-01T02:31:57.489Z,10.23
2022-10-01T02:34:31.249Z,10.50
2022-10-01T02:37:02.350Z,10.18
2022-10-01T02:39:33.156Z,10.40
2022-10-01T02:42:03.140Z,11.55
2022-10-01T02:44:38.098Z,10.40
2022-10-01T02:47:11.075Z,10.20
2022-10-01T02:49:41.396Z,10.95
2022-10-01T02:52:15.716Z,11.43
2022-10-01T02:54:48.095Z,10.90
2022-10-01T02:57:27.246Z,10.93
2022-10-01T02:59:59.997Z,10.80
2022-10-01T03:02:31.812Z,10.35
2022-10-01T03:05:01.024Z,10.32
2022-10-01T03:07:31.376Z,11.32
2022-10-01T03:10:00.062Z,10.93
2022-10-01T03:12:28.514Z,11.03
2022-10-01T03:14:56.986Z,10.45
2022-10-01T03:17:25.560Z,9.98
2022-10-01T03:19:55.181Z,10.80
2022-10-01T03:22:24.354Z,10.63
2022-10-01T03:24:53.474Z,10.60
2022-10-01T03:27:22.708Z,10.77
2022-10-01T03:29:51.205Z,10.50
2022-10-01T03:32:19.459Z,11.70
2022-10-01T03:34:47.945Z,11.15
2022-10-01T03:37:17.459Z,10.83
2022-10-01T03:39:45.885Z,10.57
2022-10-01T03:42:15.337Z,10.40
2022-10-01T03:44:43.989Z,10.25
2022-10-01T03:47:12.810Z,10.88
2022-10-01T03:49:40.995Z,10.13
2022-10-01T03:52:09.238Z,9.95
2022-10-01T03:54:39.426Z,9.95
2022-10-01T03:57:07.914Z,10.02
2022-10-01T03:59:36.245Z,9.85
2022-10-01T04:02:04.766Z,10.63
2022-10-01T04:04:33.310Z,9.43
2022-10-01T04:07:01.696Z,10.15
2022-10-01T04:09:30.126Z,9.98
2022-10-01T04:11:59.835Z,9.73
2022-10-01T04:14:28.187Z,9.60
2022-10-01T04:16:56.624Z,9.32
2022-10-01T04:19:25.045Z,9.30
2022-10-01T04:21:53.196Z,9.52
2022-10-01T04:24:21.677Z,9.38
2022-10-01T04:26:52.128Z,9.53
2022-10-01T04:29:21.663Z,9.13
2022-10-01T04:31:50.111Z,9.45
2022-10-01T04:34:18.552Z,9.10
2022-10-01T04:36:47.008Z,9.82
2022-10-01T04:39:15.543Z,9.33
2022-10-01T04:41:43.614Z,9.23
2022-10-01T04:44:11.841Z,8.93
2022-10-01T04:46:41.443Z,8.60
2022-10-01T04:49:10.217Z,9.27
2022-10-01T04:51:38.309Z,9.17
2022-10-01T04:54:06.763Z,10.27
2022-10-01T04:56:34.856Z,9.63
2022-10-01T04:59:03.388Z,8.93
2022-10-01T05:01:32.595Z,9.32
2022-10-01T05:04:02.646Z,8.93
2022-10-01T05:06:31.091Z,8.95
2022-10-01T05:08:59.651Z,9.40
2022-10-01T05:11:27.762Z,8.65
2022-10-01T05:13:56.209Z,8.95
2022-10-01T05:16:24.367Z,9.97
2022-10-01T05:18:52.540Z,8.80
2022-10-01T05:21:22.050Z,8.82
2022-10-01T05:23:50.154Z,9.38
2022-10-01T05:26:18.601Z,9.48
2022-10-01T05:28:46.736Z,8.60
2022-10-01T05:31:16.049Z,9.63
2022-10-01T05:33:44.539Z,8.95
2022-10-01T05:36:12.977Z,8.65
2022-10-01T05:38:42.483Z,8.40
2022-10-01T05:41:31.062Z,8.57
2022-10-01T05:43:59.871Z,9.15
2022-10-01T05:46:28.475Z,9.27
2022-10-01T05:48:56.642Z,7.97
2022-10-01T05:51:25.240Z,8.90
2022-10-01T05:53:59.112Z,8.50
2022-10-01T05:56:27.596Z,8.88
2022-10-01T05:58:56.158Z,8.98
2022-10-01T06:01:24.375Z,8.98
2022-10-01T06:03:52.899Z,11.13
2022-10-01T06:06:23.437Z,10.40
2022-10-01T06:08:52.150Z,9.40
2022-10-01T06:11:24.224Z,9.23
2022-10-01T06:13:53.175Z,74.13
2022-10-01T06:16:21.832Z,18.10
2022-10-01T06:18:57.481Z,13.23
2022-10-01T06:21:26.130Z,25.00
2022-10-01T06:23:54.906Z,13.75
2022-10-01T06:26:24.468Z,13.20
2022-10-01T06:28:53.172Z,11.25
2022-10-01T06:31:22.285Z,14.90
2022-10-01T06:33:50.763Z,9.75
2022-10-01T06:36:19.228Z,10.20
2022-10-01T06:38:49.382Z,9.50
2022-10-01T06:41:18.676Z,9.00
2022-10-01T06:43:50.140Z,9.53
2022-10-01T06:46:18.600Z,9.60
2022-10-01T06:48:47.075Z,9.55
2022-10-01T06:51:15.196Z,9.13
2022-10-01T06:53:42.386Z,9.30
2022-10-01T06:56:10.664Z,9.87
2022-10-01T06:58:39.158Z,10.00
2022-10-01T07:01:08.739Z,9.15
2022-10-01T07:03:37.303Z,8.98
2022-10-01T07:06:08.053Z,9.32
2022-10-01T07:08:36.572Z,9.67
2022-10-01T07:11:05.136Z,9.95
2022-10-01T07:13:33.648Z,9.75
2022-10-01T07:16:04.069Z,9.57
2022-10-01T07:18:33.739Z,9.40
2022-10-01T07:21:02.301Z,9.07
2022-10-01T07:23:30.680Z,8.80
2022-10-01T07:25:58.968Z,9.15
2022-10-01T07:28:28.233Z,9.48
2022-10-01T07:31:02.330Z,9.95
2022-10-01T07:33:31.032Z,8.80
2022-10-01T07:36:04.148Z,8.60
2022-10-01T07:38:34.804Z,8.68
2022-10-01T07:41:06.019Z,7.97
2022-10-01T07:43:36.213Z,8.30
2022-10-01T07:46:05.212Z,7.40
2022-10-01T07:48:33.384Z,7.13
2022-10-01T07:51:03.035Z,7.55
2022-10-01T07:53:31.793Z,7.80
2022-10-01T07:56:02.100Z,7.35
2022-10-01T07:58:30.571Z,7.23
2022-10-01T08:01:00.587Z,10.30
2022-10-01T08:03:29.091Z,8.85
2022-10-01T08:05:57.566Z,9.48
2022-10-01T08:08:27.177Z,7.38
2022-10-01T08:10:55.269Z,7.30
2022-10-01T08:13:25.012Z,6.85
2022-10-01T08:15:54.889Z,7.20
2022-10-01T08:18:24.447Z,6.13
2022-10-01T08:20:53.640Z,6.05
2022-10-01T08:23:22.211Z,5.43
2022-10-01T08:25:51.735Z,5.68
2022-10-01T08:28:20.296Z,5.22
2022-10-01T08:30:48.807Z,5.05
2022-10-01T08:33:17.276Z,5.45
2022-10-01T08:35:45.601Z,4.77
2022-10-01T08:38:14.612Z,4.57
2022-10-01T08:40:46.613Z,4.05
2022-10-01T08:43:29.393Z,4.13
2022-10-01T08:46:01.445Z,4.45
2022-10-01T08:48:50.042Z,3.80
2022-10-01T08:51:30.394Z,2.85
2022-10-01T08:54:04.715Z,8.35
2022-10-01T08:56:37.599Z,3.50
2022-10-01T08:59:18.479Z,3.28
2022-10-01T09:01:47.003Z,2.87
2022-10-01T09:04:20.270Z,2.80
2022-10-01T09:06:52.624Z,3.67
2022-10-01T09:09:42.494Z,3.63
2022-10-01T09:12:28.711Z,3.75
2022-10-01T09:15:23.048Z,3.10
2022-10-01T09:18:04.474Z,2.50
2022-10-01T09:20:41.840Z,2.70
2022-10-01T09:23:20.781Z,2.78
2022-10-01T09:25:51.782Z,2.75
2022-10-01T09:28:22.934Z,2.30
2022-10-01T09:30:56.874Z,2.53
2022-10-01T09:33:30.886Z,2.28
2022-10-01T09:36:07.109Z,2.47
2022-10-01T09:38:39.600Z,2.67
2022-10-01T09:41:10.487Z,2.23
2022-10-01T09:43:40.774Z,2.28
2022-10-01T09:46:14.760Z,2.50
2022-10-01T09:48:50.334Z,2.53
2022-10-01T09:51:23.052Z,2.70
2022-10-01T09:54:02.344Z,2.37
2022-10-01T09:56:36.318Z,2.35
2022-10-01T09:59:11.859Z,3.20
2022-10-01T10:01:45.524Z,2.40
2022-10-01T10:04:17.963Z,2.10
2022-10-01T10:06:48.721Z,2.40
2022-10-01T10:09:19.948Z,2.90
2022-10-01T10:11:49.168Z,2.40
2022-10-01T10:14:20.285Z,1.95
2022-10-01T10:16:50.660Z,2.20
2022-10-01T10:19:24.233Z,2.27
2022-10-01T10:21:53.862Z,2.30
2022-10-01T10:24:27.987Z,3.25
2022-10-01T10:26:58.502Z,2.20
2022-10-01T10:29:30.514Z,2.63
2022-10-01T10:32:00.960Z,2.43
2022-10-01T10:34:33.793Z,2.45
2022-10-01T10:37:11.679Z,2.08
2022-10-01T10:39:43.105Z,2.53
2022-10-01T10:42:16.384Z,2.05
2022-10-01T10:44:47.978Z,2.10
2022-10-01T10:47:20.569Z,2.33
2022-10-01T10:49:53.011Z,2.13
2022-10-01T10:52:25.405Z,2.30
2022-10-01T10:54:54.430Z,2.30
2022-10-01T10:57:27.933Z,1.97
2022-10-01T10:59:57.812Z,2.38
2022-10-01T11:02:30.846Z,2.60
2022-10-01T11:05:02.527Z,1.90
2022-10-01T11:07:31.441Z,2.80
2022-10-01T11:10:14.672Z,7.70
2022-10-01T11:13:06.810Z,4.65
2022-10-01T11:15:50.647Z,3.08
2022-10-01T11:18:56.033Z,4.40
2022-10-01T11:21:41.753Z,2.10
2022-10-01T11:24:37.902Z,1.80
2022-10-01T11:27:14.227Z,2.30
2022-10-01T11:29:57.155Z,2.55
2022-10-01T11:32:37.237Z,2.22
2022-10-01T11:35:27.933Z,2.00
2022-10-01T11:38:19.331Z,1.80
2022-10-01T11:41:09.540Z,1.50
2022-10-01T11:43:42.543Z,1.90
2022-10-01T11:46:19.238Z,1.88
2022-10-01T11:48:58.766Z,1.60
2022-10-01T11:51:40.145Z,3.10
2022-10-01T11:54:16.838Z,2.30
2022-10-01T11:57:10.880Z,2.10
2022-10-01T11:59:46.948Z,2.20
2022-10-01T12:02:23.340Z,1.98
2022-10-01T12:04:58.380Z,2.03
2022-10-01T12:07:39.447Z,1.95
2022-10-01T12:10:20.290Z,2.17
2022-10-01T12:13:02.888Z,1.90
2022-10-01T12:15:34.782Z,2.17
2022-10-01T12:21:50.750Z,2.47
2022-10-01T12:25:13.571Z,3.22
2022-10-01T12:28:04.503Z,1.98
2022-10-01T12:30:43.327Z,2.30
2022-10-01T12:33:51.504Z,2.33
2022-10-01T12:36:29.912Z,2.50
2022-10-01T12:39:16.047Z,2.20
2022-10-01T12:42:24.539Z,2.00
2022-10-01T12:45:05.593Z,2.17
2022-10-01T12:47:44.454Z,1.77
2022-10-01T12:50:23.565Z,2.20
2022-10-01T12:53:05.674Z,1.65
2022-10-01T12:55:59.814Z,1.90
2022-10-01T12:58:45.722Z,1.83
2022-10-01T13:01:23.035Z,2.20
2022-10-01T13:04:08.818Z,2.22
2022-10-01T13:07:06.465Z,2.03
2022-10-01T13:09:48.036Z,1.75
2022-10-01T13:12:57.905Z,1.63
2022-10-01T13:15:31.564Z,1.40
2022-10-01T13:18:10.772Z,1.30
2022-10-01T13:20:51.637Z,1.55
2022-10-01T13:23:27.173Z,1.63
2022-10-01T13:26:07.629Z,1.48
2022-10-01T13:28:49.623Z,1.20
2022-10-01T13:31:20.152Z,1.83
2022-10-01T13:33:58.473Z,2.22
2022-10-01T13:36:31.432Z,2.67
2022-10-01T13:39:00.265Z,1.50
2022-10-01T13:41:32.538Z,1.13
2022-10-01T13:44:28.647Z,1.20
2022-10-01T13:47:03.817Z,1.20
2022-10-01T13:49:34.251Z,1.20
2022-10-01T13:52:03.449Z,1.30
2022-10-01T13:54:37.639Z,1.30
2022-10-01T13:57:10.081Z,1.20
2022-10-01T13:59:39.717Z,1.25
2022-10-01T14:02:29.004Z,1.40
2022-10-01T14:05:09.464Z,1.17
2022-10-01T14:07:40.283Z,1.20
2022-10-01T14:10:14.490Z,1.30
2022-10-01T14:13:11.566Z,2.05
2022-10-01T14:16:03.313Z,1.30
2022-10-01T14:18:37.709Z,1.30
2022-10-01T14:21:33.850Z,1.30
2022-10-01T14:24:12.548Z,1.63
2022-10-01T14:26:49.834Z,1.73
2022-10-01T14:29:27.386Z,1.92
2022-10-01T14:32:06.230Z,1.33
2022-10-01T14:34:59.053Z,1.40
2022-10-01T14:37:30.582Z,1.35
2022-10-01T14:40:14.788Z,1.15
2022-10-01T14:42:43.242Z,1.20
2022-10-01T14:45:20.378Z,1.10
2022-10-01T14:47:49.943Z,1.50
2022-10-01T14:50:21.516Z,1.30
2022-10-01T14:52:55.008Z,1.20
2022-10-01T14:55:25.357Z,1.95
2022-10-01T14:57:55.919Z,1.48
2022-10-01T15:00:26.928Z,1.10
2022-10-01T15:03:04.778Z,1.80
2022-10-01T15:05:34.878Z,1.40
2022-10-01T15:08:15.473Z,1.30
2022-10-01T15:10:49.796Z,1.33
2022-10-01T15:13:25.090Z,1.20
2022-10-01T15:15:55.140Z,1.25
2022-10-01T15:18:24.839Z,1.95
2022-10-01T15:20:55.758Z,1.60
2022-10-01T15:23:30.064Z,1.30
2022-10-01T15:26:00.267Z,1.20
2022-10-01T15:28:33.029Z,1.30
2022-10-01T15:31:05.265Z,1.10
2022-10-01T15:33:40.387Z,1.30
2022-10-01T15:36:19.130Z,1.10
2022-10-01T15:38:50.616Z,1.20
2022-10-01T15:41:32.344Z,1.23
2022-10-01T15:44:06.619Z,1.13
2022-10-01T15:46:38.146Z,1.00
2022-10-01T15:49:16.961Z,1.30
2022-10-01T15:52:06.523Z,0.80
2022-10-01T15:54:39.756Z,1.10
2022-10-01T15:57:09.113Z,0.90
2022-10-01T16:00:21.304Z,1.00
2022-10-01T16:02:57.835Z,1.25
2022-10-01T16:05:28.986Z,1.20
2022-10-01T16:08:53.953Z,1.10
2022-10-01T16:11:31.995Z,1.23
2022-10-01T16:14:24.335Z,1.00
2022-10-01T16:16:52.994Z,1.13
2022-10-01T16:22:24.411Z,0.90
2022-10-01T16:24:59.988Z,0.73
2022-10-01T16:27:33.164Z,0.90
2022-10-01T16:30:14.301Z,1.13
2022-10-01T16:32:45.151Z,1.40
2022-10-01T16:35:18.803Z,1.02
2022-10-01T16:37:49.648Z,0.95
2022-10-01T16:40:18.507Z,0.82
2022-10-01T16:42:50.622Z,1.00
2022-10-01T16:45:24.832Z,0.90
2022-10-01T16:47:56.849Z,0.80
2022-10-01T16:50:25.721Z,0.90
2022-10-01T16:52:54.621Z,0.80
2022-10-01T16:55:26.940Z,1.00
2022-10-01T16:57:59.816Z,2.90
2022-10-01T17:00:29.074Z,1.58
2022-10-01T17:02:57.830Z,0.95
2022-10-01T17:05:39.427Z,1.00
2022-10-01T17:08:12.083Z,0.90
2022-10-01T17:10:43.730Z,1.00
2022-10-01T17:13:16.262Z,0.95
2022-10-01T17:15:45.019Z,1.10
2022-10-01T17:18:13.821Z,0.75
2022-10-01T17:20:42.273Z,1.20
2022-10-01T17:23:12.130Z,0.93
2022-10-01T17:25:43.426Z,1.00
2022-10-01T17:28:17.706Z,1.30
2022-10-01T17:30:55.453Z,1.35
2022-10-01T17:33:24.769Z,0.82
2022-10-01T17:35:55.790Z,0.90
2022-10-01T17:38:24.609Z,1.00
2022-10-01T17:40:56.688Z,1.00
2022-10-01T17:43:26.656Z,2.92
2022-10-01T17:45:57.763Z,1.10
2022-10-01T17:48:28.643Z,1.00
2022-10-01T17:51:04.116Z,1.05
2022-10-01T17:53:39.647Z,1.25
2022-10-01T17:56:11.816Z,0.88
2022-10-01T17:58:45.208Z,1.10
2022-10-01T18:01:16.686Z,1.57
2022-10-01T18:03:45.390Z,1.70
2022-10-01T18:06:16.168Z,1.20
2022-10-01T18:08:54.997Z,1.60
2022-10-01T18:11:24.948Z,1.50
2022-10-01T18:13:54.593Z,1.40
2022-10-01T18:16:23.981Z,0.88
2022-10-01T18:21:44.559Z,2.10
2022-10-01T18:24:13.217Z,1.80
2022-10-01T18:26:42.721Z,1.20
2022-10-01T18:29:18.026Z,1.83
2022-10-01T18:31:48.211Z,1.42
2022-10-01T18:34:26.332Z,1.05
2022-10-01T18:37:03.341Z,1.48
2022-10-01T18:39:39.537Z,1.67
2022-10-01T18:42:20.437Z,0.93
2022-10-01T18:44:56.598Z,0.98
2022-10-01T18:47:36.869Z,1.00
2022-10-01T18:50:29.807Z,1.17
2022-10-01T18:53:12.016Z,1.13
2022-10-01T18:56:03.225Z,1.00
2022-10-01T18:59:07.240Z,2.20
2022-10-01T19:01:48.240Z,1.67
2022-10-01T19:05:14.861Z,1.50
2022-10-01T19:08:31.483Z,1.07
2022-10-01T19:14:57.521Z,1.20
2022-10-01T19:17:43.513Z,0.98
2022-10-01T19:20:21.792Z,1.50
2022-10-01T19:23:03.664Z,1.27
2022-10-01T19:25:37.443Z,1.13
2022-10-01T19:28:17.456Z,2.00
2022-10-01T19:30:54.906Z,1.33
2022-10-01T19:33:25.609Z,1.20
2022-10-01T19:35:58.561Z,1.53
2022-10-01T19:38:33.748Z,0.90
2022-10-01T19:41:08.162Z,1.15
2022-10-01T19:43:41.291Z,1.30
2022-10-01T19:46:15.964Z,2.55
2022-10-01T19:48:51.870Z,1.50
2022-10-01T19:51:23.399Z,1.50
2022-10-01T19:54:00.196Z,0.85
2022-10-01T19:56:31.087Z,1.27
2022-10-01T19:59:01.659Z,1.80
2022-10-01T20:01:45.446Z,1.30
2022-10-01T20:04:22.877Z,0.95
2022-10-01T20:06:51.760Z,0.82
2022-10-01T20:09:27.727Z,0.80
2022-10-01T20:12:04.886Z,1.10
2022-10-01T20:15:06.462Z,1.00
2022-10-01T20:17:41.665Z,0.98
2022-10-01T20:20:18.804Z,1.00
2022-10-01T20:23:12.798Z,0.90
2022-10-01T20:25:51.883Z,1.10
2022-10-01T20:28:31.394Z,0.93
2022-10-01T20:31:09.063Z,0.80
2022-10-01T20:33:53.935Z,1.10
2022-10-01T20:36:31.748Z,0.80
2022-10-01T20:39:12.053Z,1.00
2022-10-01T20:41:49.442Z,0.77
2022-10-01T20:44:23.371Z,0.80
2022-10-01T20:46:55.722Z,0.90
2022-10-01T20:49:31.007Z,1.20
2022-10-01T20:52:09.439Z,4.20
2022-10-01T20:54:47.433Z,3.03
2022-10-01T20:57:30.057Z,1.70
2022-10-01T21:00:06.595Z,1.10
2022-10-01T21:02:41.679Z,0.90
2022-10-01T21:05:17.079Z,1.80
2022-10-01T21:07:58.024Z,2.60
2022-10-01T21:10:34.860Z,4.85
2022-10-01T21:13:08.939Z,1.55
2022-10-01T21:15:49.481Z,1.17
2022-10-01T21:18:31.733Z,2.42
2022-10-01T21:21:11.642Z,1.27
2022-10-01T21:23:57.347Z,0.90
2022-10-01T21:26:39.701Z,0.82
2022-10-01T21:29:26.028Z,1.77
2022-10-01T21:32:12.016Z,1.33
2022-10-01T21:34:57.014Z,0.90
2022-10-01T21:37:31.765Z,1.45
2022-10-01T21:40:11.541Z,1.00
2022-10-01T21:42:45.947Z,1.00
2022-10-01T21:45:23.927Z,1.10
2022-10-01T21:48:04.388Z,0.70
2022-10-01T21:50:46.493Z,0.50
2022-10-01T21:53:47.780Z,2.75
2022-10-01T21:56:40.647Z,1.45
2022-10-01T21:59:22.857Z,1.20
2022-10-01T22:02:07.179Z,2.10
2022-10-01T22:04:46.201Z,1.75
2022-10-01T22:07:28.126Z,10.32
2022-10-01T22:10:11.590Z,1.40
2022-10-01T22:12:45.634Z,1.20
2022-10-01T22:15:22.338Z,1.10
2022-10-01T22:17:53.766Z,0.70
2022-10-01T22:20:24.986Z,0.90
2022-10-01T22:22:59.425Z,1.75
2022-10-01T22:25:30.837Z,2.67
2022-10-01T22:28:03.119Z,2.47
2022-10-01T22:30:35.143Z,1.10
2022-10-01T22:33:09.617Z,0.80
2022-10-01T22:35:48.153Z,0.90
2022-10-01T22:38:26.232Z,0.95
2022-10-01T22:41:02.466Z,1.00
2022-10-01T22:43:32.173Z,1.10
2022-10-01T22:46:23.353Z,1.38
2022-10-01T22:49:00.599Z,0.90
2022-10-01T22:51:44.123Z,1.27
2022-10-01T22:54:31.261Z,1.10
2022-10-01T22:57:13.653Z,1.00
2022-10-01T22:59:52.573Z,0.90
2022-10-01T23:02:29.708Z,0.73
2022-10-01T23:05:16.204Z,0.90
2022-10-01T23:07:54.146Z,0.80
2022-10-01T23:10:32.091Z,0.80
2022-10-01T23:13:13.257Z,1.00
2022-10-01T23:15:49.338Z,0.70
2022-10-01T23:19:05.101Z,0.90
2022-10-01T23:21:45.919Z,0.93
2022-10-01T23:24:28.792Z,0.85
2022-10-01T23:27:06.979Z,0.90
2022-10-01T23:29:56.376Z,0.73
2022-10-01T23:32:42.710Z,0.90
2022-10-01T23:35:15.611Z,1.20
2022-10-01T23:38:01.379Z,0.80
2022-10-01T23:40:33.947Z,1.10
2022-10-01T23:43:10.599Z,1.13
2022-10-01T23:45:44.168Z,0.90
2022-10-01T23:48:19.145Z,0.80
2022-10-01T23:50:59.961Z,1.10
2022-10-01T23:53:33.959Z,0.73
2022-10-01T23:56:33.821Z,1.00
2022-10-01T23:59:13.743Z,0.90
